Time;durP1;ratioP1;P1;durP2;ratioP2;P2;SDS_P1;SDS_P2;PMS_P1;PMS_P2;Temp;Humidity;BMP_temperature;BMP_pressure;BME280_temperature;BME280_humidity;BME280_pressure;Samples;Min_cycle;Max_cycle;Signal;HPM_P1;HPM_P2
2024/01/16 00:00:17;;;;;;;4.35;1.00;;;0.40;99.90;;;;;;5063681;28;20060;-81
2024/01/16 00:02:42;;;;;;;9.55;1.52;;;0.40;99.90;;;;;;5069934;28;20041;-81
2024/01/16 00:05:09;;;;;;;9.27;1.20;;;0.40;99.90;;;;;;5044325;28;20033;-81
2024/01/16 00:07:39;;;;;;;10.48;2.22;;;0.40;99.90;;;;;;5018422;28;20128;-81
2024/01/16 00:10:07;;;;;;;9.27;1.38;;;0.40;99.90;;;;;;5047059;28;20036;-81
2024/01/16 00:12:32;;;;;;;7.22;1.02;;;0.40;99.90;;;;;;5052560;28;20043;-81
2024/01/16 00:14:58;;;;;;;5.75;1.20;;;0.40;99.90;;;;;;5038330;28;20432;-81
2024/01/16 00:17:24;;;;;;;9.77;1.75;;;0.40;99.90;;;;;;5038200;28;20046;-81
2024/01/16 00:19:49;;;;;;;8.20;1.30;;;0.40;99.90;;;;;;5024561;28;20501;-81
2024/01/16 00:22:15;;;;;;;6.85;1.20;;;0.40;99.90;;;;;;5067274;28;20143;-81
2024/01/16 00:24:41;;;;;;;7.45;1.13;;;0.40;99.90;;;;;;5034655;28;20037;-81
2024/01/16 00:27:07;;;;;;;11.75;1.88;;;0.40;99.90;;;;;;5022612;28;20036;-81
2024/01/16 00:29:32;;;;;;;8.40;0.93;;;0.40;99.90;;;;;;5035876;28;20037;-81
2024/01/16 00:31:58;;;;;;;4.80;1.15;;;0.50;99.90;;;;;;5029156;28;20037;-81
2024/01/16 00:34:23;;;;;;;6.20;1.50;;;0.50;99.90;;;;;;5041214;28;20405;-81
2024/01/16 00:36:49;;;;;;;8.88;1.30;;;0.40;99.90;;;;;;5049541;28;20036;-81
2024/01/16 00:39:15;;;;;;;7.82;1.20;;;0.40;99.90;;;;;;5041395;28;20127;-81
2024/01/16 00:41:40;;;;;;;7.25;1.67;;;0.50;99.90;;;;;;5029928;28;20099;-81
2024/01/16 00:44:07;;;;;;;4.65;0.90;;;0.50;99.90;;;;;;5038357;28;20037;-81
2024/01/16 00:46:33;;;;;;;7.22;1.35;;;0.50;99.90;;;;;;5053502;28;20055;-81
2024/01/16 00:48:58;;;;;;;8.27;1.52;;;0.50;99.90;;;;;;5057289;28;20024;-80
2024/01/16 00:51:25;;;;;;;5.72;1.08;;;0.50;99.90;;;;;;5035477;28;20401;-81
2024/01/16 00:53:51;;;;;;;5.20;0.90;;;0.50;99.90;;;;;;5056909;28;20409;-81
2024/01/16 00:56:16;;;;;;;9.65;1.88;;;0.50;99.90;;;;;;5040624;28;20049;-81
2024/01/16 00:58:42;;;;;;;7.90;1.50;;;0.50;99.90;;;;;;5057641;28;20561;-81
2024/01/16 01:01:07;;;;;;;4.43;0.90;;;0.50;99.90;;;;;;5056659;28;20040;-81
2024/01/16 01:03:33;;;;;;;3.95;0.90;;;0.60;99.90;;;;;;5055325;28;20032;-81
2024/01/16 01:06:00;;;;;;;4.90;0.60;;;0.60;99.90;;;;;;5054186;28;20401;-80
2024/01/16 01:08:26;;;;;;;2.60;0.40;;;0.70;99.90;;;;;;5037948;28;20041;-81
2024/01/16 01:10:51;;;;;;;3.63;0.50;;;0.70;99.90;;;;;;5054424;28;20370;-81
2024/01/16 01:13:17;;;;;;;6.38;0.93;;;0.70;99.90;;;;;;5035039;28;20102;-81
2024/01/16 01:15:42;;;;;;;4.13;0.68;;;0.70;99.90;;;;;;5046734;28;20032;-81
2024/01/16 01:18:08;;;;;;;7.93;1.10;;;0.70;99.90;;;;;;5040790;28;20044;-81
2024/01/16 01:20:34;;;;;;;2.83;0.70;;;0.70;99.90;;;;;;5057491;28;20052;-81
2024/01/16 01:22:59;;;;;;;7.88;0.90;;;0.60;99.90;;;;;;5055414;28;20481;-81
2024/01/16 01:25:26;;;;;;;6.57;0.90;;;0.60;99.90;;;;;;5053921;28;20067;-81
2024/01/16 01:27:52;;;;;;;6.18;0.93;;;0.50;99.90;;;;;;5049983;28;20039;-80
2024/01/16 01:30:18;;;;;;;6.55;1.02;;;0.50;99.90;;;;;;5057100;28;20497;-81
2024/01/16 01:32:44;;;;;;;7.50;0.93;;;0.50;99.90;;;;;;5039726;28;20043;-80
2024/01/16 01:35:11;;;;;;;6.45;1.33;;;0.50;99.90;;;;;;5040629;28;20037;-81
2024/01/16 01:37:38;;;;;;;5.93;1.15;;;0.40;99.90;;;;;;5056629;28;20125;-80
2024/01/16 01:40:04;;;;;;;5.72;1.05;;;0.40;99.90;;;;;;5056893;28;20044;-80
2024/01/16 01:42:29;;;;;;;10.60;1.35;;;0.30;99.90;;;;;;5038609;28;20037;-80
2024/01/16 01:44:55;;;;;;;2.72;0.63;;;0.30;99.90;;;;;;5040228;28;20055;-80
2024/01/16 01:47:21;;;;;;;6.50;1.30;;;0.40;99.90;;;;;;5055421;28;20037;-80
2024/01/16 01:49:47;;;;;;;6.80;0.98;;;0.20;99.90;;;;;;5037068;28;20549;-80
2024/01/16 01:52:13;;;;;;;4.53;0.80;;;0.20;99.90;;;;;;5036785;28;20132;-80
2024/01/16 01:54:40;;;;;;;6.22;0.70;;;0.30;99.90;;;;;;5068742;28;20075;-80
2024/01/16 01:57:08;;;;;;;6.32;0.80;;;0.30;99.90;;;;;;5056329;28;20128;-80
2024/01/16 01:59:34;;;;;;;5.60;1.00;;;0.30;99.90;;;;;;5055382;28;20060;-79
2024/01/16 02:02:00;;;;;;;3.63;0.80;;;0.40;99.90;;;;;;5039861;28;20094;-79
2024/01/16 02:04:27;;;;;;;6.78;0.82;;;0.30;99.90;;;;;;5053248;28;20443;-79
2024/01/16 02:06:53;;;;;;;2.20;0.80;;;0.30;99.90;;;;;;5055796;28;20036;-79
2024/01/16 02:09:20;;;;;;;3.42;0.73;;;0.20;99.90;;;;;;5055547;28;20120;-80
2024/01/16 02:11:45;;;;;;;3.90;0.50;;;0.20;99.90;;;;;;5039723;28;20480;-79
2024/01/16 02:14:11;;;;;;;4.82;0.85;;;0.20;99.90;;;;;;5051762;28;20036;-79
2024/01/16 02:16:41;;;;;;;6.63;0.68;;;0.20;99.90;;;;;;5052256;28;20044;-80
2024/01/16 02:19:08;;;;;;;6.10;0.93;;;0.20;99.90;;;;;;5036339;28;20123;-80
2024/01/16 02:21:46;;;;;;;5.32;0.90;;;0.30;99.90;;;;;;5036103;28;20497;-80
2024/01/16 02:24:13;;;;;;;4.88;0.80;;;0.40;99.90;;;;;;5028222;28;21072;-80
2024/01/16 02:26:39;;;;;;;3.60;1.05;;;0.40;99.90;;;;;;5039605;28;20048;-80
2024/01/16 02:29:04;;;;;;;5.70;1.10;;;0.40;99.90;;;;;;5055162;28;20037;-80
2024/01/16 02:31:31;;;;;;;9.80;0.88;;;0.60;99.90;;;;;;5039308;28;20036;-80
2024/01/16 02:33:56;;;;;;;8.57;0.93;;;0.50;99.90;;;;;;5047869;28;20120;-80
2024/01/16 02:36:22;;;;;;;5.07;0.88;;;0.50;99.90;;;;;;5036793;28;20126;-80
2024/01/16 02:38:48;;;;;;;2.58;0.70;;;0.50;99.90;;;;;;5055299;28;20442;-79
2024/01/16 02:41:15;;;;;;;7.45;0.95;;;0.50;99.90;;;;;;5038927;28;20032;-79
2024/01/16 02:43:41;;;;;;;5.07;1.00;;;0.50;99.90;;;;;;5071826;28;20040;-79
2024/01/16 02:46:08;;;;;;;3.40;1.13;;;0.50;99.90;;;;;;5052998;28;20045;-80
2024/01/16 02:48:34;;;;;;;3.78;0.60;;;0.50;99.90;;;;;;5039174;28;20119;-79
2024/01/16 02:51:00;;;;;;;5.20;0.82;;;0.40;99.90;;;;;;5055779;28;20032;-79
2024/01/16 02:53:27;;;;;;;6.53;0.73;;;0.40;99.90;;;;;;5054931;28;20117;-79
2024/01/16 02:55:53;;;;;;;2.67;0.68;;;0.50;99.90;;;;;;5049983;28;20041;-79
2024/01/16 02:58:19;;;;;;;4.03;0.80;;;0.60;99.90;;;;;;5043020;28;20065;-79
2024/01/16 03:00:44;;;;;;;5.43;0.90;;;0.60;99.90;;;;;;5051449;28;20421;-80
2024/01/16 03:03:11;;;;;;;5.30;1.00;;;0.50;99.90;;;;;;5036952;28;20044;-79
2024/01/16 03:05:36;;;;;;;3.05;0.65;;;0.60;99.90;;;;;;5052658;28;20102;-79
2024/01/16 03:08:02;;;;;;;4.15;0.80;;;0.70;99.90;;;;;;5054154;28;20480;-79
2024/01/16 03:10:28;;;;;;;8.00;0.90;;;0.70;99.90;;;;;;5038078;28;20036;-79
2024/01/16 03:12:53;;;;;;;5.97;1.08;;;0.60;99.90;;;;;;5043312;28;20397;-79
2024/01/16 03:15:20;;;;;;;5.28;0.77;;;0.60;99.90;;;;;;5054405;28;20044;-79
2024/01/16 03:17:45;;;;;;;3.30;0.70;;;0.50;99.90;;;;;;5035949;28;20051;-79
2024/01/16 03:20:11;;;;;;;4.90;1.05;;;0.40;99.90;;;;;;5055219;28;20040;-79
2024/01/16 03:22:37;;;;;;;4.78;1.00;;;0.40;99.90;;;;;;5055113;28;20049;-79
2024/01/16 03:25:03;;;;;;;4.88;0.80;;;0.40;99.90;;;;;;5043949;28;20048;-79
2024/01/16 03:27:28;;;;;;;4.10;0.98;;;0.40;99.90;;;;;;5063513;28;20037;-79
2024/01/16 03:29:54;;;;;;;5.85;0.82;;;0.30;99.90;;;;;;5071832;28;20040;-79
2024/01/16 03:32:20;;;;;;;4.25;1.10;;;0.30;99.90;;;;;;5054877;28;20041;-79
2024/01/16 03:34:45;;;;;;;3.60;0.90;;;0.20;99.90;;;;;;5053787;28;20029;-79
2024/01/16 03:37:11;;;;;;;3.58;0.63;;;0.30;99.90;;;;;;5036650;28;20041;-79
2024/01/16 03:39:36;;;;;;;5.13;1.33;;;0.30;99.90;;;;;;5055107;28;20044;-79
2024/01/16 03:42:02;;;;;;;5.10;0.70;;;0.30;99.90;;;;;;5038572;28;20489;-79
2024/01/16 03:44:28;;;;;;;5.28;0.80;;;0.30;99.90;;;;;;5030039;28;20068;-79
2024/01/16 03:46:54;;;;;;;4.35;0.90;;;0.30;99.90;;;;;;5035553;28;20044;-78
2024/01/16 03:49:21;;;;;;;7.05;0.70;;;0.20;99.90;;;;;;5054961;28;20029;-78
2024/01/16 03:51:47;;;;;;;5.68;1.08;;;0.40;99.90;;;;;;5054761;28;20083;-79
2024/01/16 03:54:13;;;;;;;4.97;0.73;;;0.40;99.90;;;;;;5042179;28;20044;-79
2024/01/16 03:56:39;;;;;;;4.00;0.80;;;0.20;99.90;;;;;;5054803;28;20413;-78
2024/01/16 03:59:05;;;;;;;8.52;1.45;;;0.20;99.90;;;;;;5018320;28;20053;-79
2024/01/16 04:01:32;;;;;;;4.32;0.90;;;0.20;99.90;;;;;;5030864;28;20052;-79
2024/01/16 04:03:58;;;;;;;2.70;0.47;;;0.10;99.90;;;;;;5015347;28;20127;-78
2024/01/16 04:06:24;;;;;;;4.03;1.25;;;0.10;99.90;;;;;;5032495;28;20065;-79
2024/01/16 04:08:49;;;;;;;5.25;0.93;;;0.20;99.90;;;;;;5031370;28;20117;-79
2024/01/16 04:11:15;;;;;;;4.60;0.70;;;0.10;99.90;;;;;;5035429;28;20041;-79
2024/01/16 04:13:42;;;;;;;3.13;0.75;;;0.10;99.90;;;;;;5018155;28;20040;-79
2024/01/16 04:16:08;;;;;;;3.97;0.80;;;0.00;99.90;;;;;;5035551;28;20049;-78
2024/01/16 04:18:40;;;;;;;4.72;0.88;;;0.10;99.90;;;;;;5033430;28;20036;-79
2024/01/16 04:21:06;;;;;;;7.18;1.00;;;0.20;99.90;;;;;;5034551;28;20120;-79
2024/01/16 04:23:32;;;;;;;2.85;0.73;;;0.00;99.90;;;;;;5034416;28;20043;-79
2024/01/16 04:25:58;;;;;;;5.32;0.65;;;0.10;99.90;;;;;;5018537;28;20493;-78
2024/01/16 04:28:24;;;;;;;2.70;0.70;;;0.10;99.90;;;;;;5033356;28;20375;-79
2024/01/16 04:30:50;;;;;;;4.93;0.90;;;0.10;99.90;;;;;;5035040;28;20040;-79
2024/01/16 04:33:15;;;;;;;5.80;1.23;;;0.10;99.90;;;;;;5032304;28;20501;-78
2024/01/16 04:35:41;;;;;;;4.72;0.75;;;0.10;99.90;;;;;;5015211;28;20046;-78
2024/01/16 04:38:07;;;;;;;5.55;1.05;;;0.20;99.90;;;;;;5015711;28;20109;-78
2024/01/16 04:40:33;;;;;;;7.43;0.80;;;0.10;99.90;;;;;;5017992;28;20486;-78
2024/01/16 04:42:59;;;;;;;6.00;1.30;;;0.00;99.90;;;;;;5000727;28;20045;-78
2024/01/16 04:45:25;;;;;;;4.78;0.80;;;0.10;99.90;;;;;;5035093;28;20478;-78
2024/01/16 04:47:51;;;;;;;4.20;0.77;;;0.20;99.90;;;;;;5034700;28;20091;-78
2024/01/16 04:50:18;;;;;;;1.92;0.50;;;0.10;99.90;;;;;;4998535;28;20042;-78
2024/01/16 04:52:43;;;;;;;5.22;1.10;;;0.20;99.90;;;;;;4998460;28;20081;-78
2024/01/16 04:55:09;;;;;;;6.70;0.93;;;0.20;99.90;;;;;;5015496;28;20088;-78
2024/01/16 04:57:34;;;;;;;6.95;0.90;;;0.30;99.90;;;;;;5034571;28;20379;-78
2024/01/16 05:00:00;;;;;;;5.18;1.33;;;0.20;99.90;;;;;;5031274;28;20075;-79
2024/01/16 05:02:26;;;;;;;4.65;0.80;;;0.20;99.90;;;;;;5016030;28;20069;-78
2024/01/16 05:04:51;;;;;;;7.65;0.80;;;0.20;99.90;;;;;;5034190;28;20033;-79
2024/01/16 05:07:23;;;;;;;6.55;1.08;;;0.20;99.90;;;;;;5034645;28;20398;-79
2024/01/16 05:09:49;;;;;;;5.38;1.15;;;0.20;99.90;;;;;;5028555;28;20398;-79
2024/01/16 05:12:14;;;;;;;3.00;0.38;;;0.20;99.90;;;;;;5032923;28;20124;-79
2024/01/16 05:14:40;;;;;;;5.50;0.80;;;0.30;99.90;;;;;;5017747;28;20099;-79
2024/01/16 05:17:06;;;;;;;4.03;0.70;;;0.30;99.90;;;;;;5012661;28;20037;-79
2024/01/16 05:19:32;;;;;;;8.02;1.05;;;0.40;99.90;;;;;;5013933;28;20494;-79
2024/01/16 05:21:57;;;;;;;9.65;1.05;;;0.40;99.90;;;;;;5015296;28;20126;-79
2024/01/16 05:24:23;;;;;;;6.43;0.68;;;0.40;99.90;;;;;;5031820;28;20067;-79
2024/01/16 05:26:49;;;;;;;4.72;0.47;;;0.40;99.90;;;;;;5007293;28;20057;-79
2024/01/16 05:29:14;;;;;;;4.47;0.70;;;0.50;99.90;;;;;;5038738;28;20041;-79
2024/01/16 05:31:43;;;;;;;6.68;0.98;;;0.60;99.90;;;;;;5011083;28;20034;-79
2024/01/16 05:34:10;;;;;;;6.20;0.88;;;0.50;99.90;;;;;;5033954;28;20138;-79
2024/01/16 05:36:35;;;;;;;4.15;0.88;;;0.40;99.90;;;;;;5017404;28;20045;-79
2024/01/16 05:39:02;;;;;;;6.22;1.27;;;0.30;99.90;;;;;;5026409;28;20398;-79
2024/01/16 05:41:31;;;;;;;4.60;0.90;;;0.50;99.90;;;;;;5002245;28;20038;-79
2024/01/16 05:43:57;;;;;;;1.83;0.60;;;0.40;99.90;;;;;;5033655;28;20095;-79
2024/01/16 05:46:23;;;;;;;5.43;1.02;;;0.40;99.90;;;;;;5033969;28;20505;-79
2024/01/16 05:48:48;;;;;;;4.93;0.60;;;0.50;99.90;;;;;;5032239;28;20044;-79
2024/01/16 05:51:14;;;;;;;5.28;0.90;;;0.60;99.90;;;;;;5033095;28;20044;-79
2024/01/16 05:53:40;;;;;;;6.97;0.70;;;0.70;99.90;;;;;;5032293;28;20397;-79
2024/01/16 05:56:05;;;;;;;9.07;1.52;;;0.80;99.90;;;;;;5017003;28;20037;-79
2024/01/16 05:58:35;;;;;;;5.30;0.95;;;0.80;99.90;;;;;;5033178;28;20052;-79
2024/01/16 06:01:01;;;;;;;4.90;0.80;;;0.80;99.90;;;;;;5023136;28;20138;-79
2024/01/16 06:03:26;;;;;;;2.78;0.40;;;0.80;99.90;;;;;;5052269;28;20096;-80
2024/01/16 06:05:52;;;;;;;2.65;0.70;;;0.80;99.90;;;;;;5053166;28;20088;-79
2024/01/16 06:08:18;;;;;;;3.35;0.80;;;0.70;99.90;;;;;;5035139;28;20045;-80
2024/01/16 06:10:45;;;;;;;4.88;1.23;;;0.60;99.90;;;;;;5033528;28;20033;-79
2024/01/16 06:13:11;;;;;;;8.65;1.38;;;0.60;99.90;;;;;;5044990;28;20045;-80
2024/01/16 06:15:36;;;;;;;5.75;0.40;;;0.60;99.90;;;;;;5033421;28;20412;-80
2024/01/16 06:18:02;;;;;;;5.43;0.82;;;0.60;99.90;;;;;;5016186;28;20033;-80
2024/01/16 06:20:29;;;;;;;5.13;0.85;;;0.70;99.90;;;;;;5033338;28;20037;-80
2024/01/16 06:22:54;;;;;;;3.90;0.73;;;0.80;99.90;;;;;;5035016;28;20498;-80
2024/01/16 06:25:20;;;;;;;6.60;1.13;;;0.70;99.90;;;;;;5034248;28;20036;-80
2024/01/16 06:27:46;;;;;;;4.72;0.75;;;0.70;99.90;;;;;;5036170;28;20041;-80
2024/01/16 06:30:11;;;;;;;5.47;0.70;;;0.60;99.90;;;;;;5051377;28;20469;-80
2024/01/16 06:32:37;;;;;;;5.63;0.80;;;0.60;99.90;;;;;;5036304;28;20048;-80
2024/01/16 06:35:03;;;;;;;4.10;0.70;;;0.60;99.90;;;;;;5051433;28;20076;-80
2024/01/16 06:37:28;;;;;;;4.00;0.77;;;0.60;99.90;;;;;;5052518;28;20051;-79
2024/01/16 06:39:54;;;;;;;2.83;0.47;;;0.60;99.90;;;;;;5021109;28;20083;-80
2024/01/16 06:42:20;;;;;;;4.15;0.80;;;0.60;99.90;;;;;;5052411;28;20067;-80
2024/01/16 06:44:46;;;;;;;3.30;0.60;;;0.60;99.90;;;;;;5040246;28;20485;-80
2024/01/16 06:47:11;;;;;;;3.00;0.70;;;0.60;99.90;;;;;;5034320;28;20036;-80
2024/01/16 06:49:37;;;;;;;5.70;0.73;;;0.70;99.90;;;;;;5034026;28;20045;-80
2024/01/16 06:52:03;;;;;;;3.10;0.65;;;0.70;99.90;;;;;;5035620;28;20075;-80
2024/01/16 06:54:29;;;;;;;5.30;1.05;;;0.70;99.90;;;;;;5051561;28;20044;-80
2024/01/16 06:56:54;;;;;;;2.90;0.68;;;0.70;99.90;;;;;;5051555;28;20489;-80
2024/01/16 06:59:21;;;;;;;4.50;0.82;;;0.60;99.90;;;;;;5035875;28;20488;-80
2024/01/16 07:01:47;;;;;;;3.92;0.90;;;0.70;99.90;;;;;;4996125;28;20441;-80
2024/01/16 07:04:14;;;;;;;7.40;1.20;;;0.80;99.90;;;;;;5012021;28;20040;-80
2024/01/16 07:06:40;;;;;;;1.23;0.43;;;0.70;99.90;;;;;;5032004;28;20045;-80
2024/01/16 07:09:06;;;;;;;2.03;0.68;;;0.80;99.90;;;;;;5027112;28;20387;-80
2024/01/16 07:11:31;;;;;;;4.60;0.70;;;0.80;99.90;;;;;;4996237;28;20049;-80
2024/01/16 07:13:57;;;;;;;5.68;0.75;;;0.80;99.90;;;;;;5012494;28;20042;-80
2024/01/16 07:16:23;;;;;;;6.00;1.65;;;0.70;99.90;;;;;;5012371;28;20030;-80
2024/01/16 07:18:48;;;;;;;2.80;0.73;;;0.70;99.90;;;;;;5031804;28;20033;-80
2024/01/16 07:21:20;;;;;;;5.22;1.23;;;0.70;99.90;;;;;;5007514;28;20037;-80
2024/01/16 07:23:47;;;;;;;5.45;0.52;;;0.70;99.90;;;;;;5031898;28;20042;-80
2024/01/16 07:26:13;;;;;;;3.25;0.80;;;0.70;99.90;;;;;;5021699;28;20060;-80
2024/01/16 07:28:38;;;;;;;1.67;0.50;;;0.70;99.90;;;;;;5029110;28;20481;-80
2024/01/16 07:31:05;;;;;;;2.78;0.60;;;0.80;99.90;;;;;;5026562;28;20036;-80
2024/01/16 07:33:31;;;;;;;2.72;0.60;;;0.70;99.90;;;;;;5007660;28;20056;-80
2024/01/16 07:35:56;;;;;;;0.93;0.35;;;0.80;99.90;;;;;;5028805;28;20041;-80
2024/01/16 07:38:22;;;;;;;5.55;0.65;;;0.70;99.90;;;;;;5003088;28;20492;-80
2024/01/16 07:40:47;;;;;;;4.22;0.68;;;0.80;99.90;;;;;;5007434;28;20046;-80
2024/01/16 07:43:13;;;;;;;2.08;0.55;;;0.90;99.90;;;;;;5004700;28;20525;-80
2024/01/16 07:45:39;;;;;;;2.10;0.70;;;0.80;99.90;;;;;;5028642;28;20041;-80
2024/01/16 07:48:04;;;;;;;2.10;0.65;;;0.90;99.90;;;;;;5026570;28;20556;-80
2024/01/16 07:50:30;;;;;;;3.42;0.70;;;0.90;99.90;;;;;;5012132;28;20041;-80
2024/01/16 07:52:56;;;;;;;2.75;0.68;;;0.90;99.90;;;;;;4999378;28;20433;-80
2024/01/16 07:55:21;;;;;;;5.30;1.50;;;0.80;99.90;;;;;;5013571;28;20789;-82
2024/01/16 07:57:47;;;;;;;2.35;0.50;;;0.70;99.90;;;;;;5013663;28;20049;-80
2024/01/16 08:00:13;;;;;;;3.30;0.60;;;0.70;99.90;;;;;;5001968;28;20057;-80
2024/01/16 08:02:39;;;;;;;8.30;1.63;;;0.60;99.90;;;;;;5015896;28;20510;-80
2024/01/16 08:05:05;;;;;;;4.00;0.90;;;0.60;99.90;;;;;;4995361;28;20030;-80
2024/01/16 08:07:31;;;;;;;2.53;0.80;;;0.50;99.90;;;;;;5008710;28;21401;-80
2024/01/16 08:09:57;;;;;;;2.30;0.50;;;0.50;99.90;;;;;;5002666;28;20494;-80
2024/01/16 08:12:22;;;;;;;8.93;1.00;;;0.70;99.90;;;;;;5012839;28;20037;-80
2024/01/16 08:14:48;;;;;;;5.13;0.88;;;0.70;99.90;;;;;;5009749;28;21292;-80
2024/01/16 08:17:14;;;;;;;2.60;0.75;;;0.80;99.90;;;;;;5010294;28;20462;-80
2024/01/16 08:19:40;;;;;;;3.35;0.80;;;0.70;99.90;;;;;;5011028;28;20038;-81
2024/01/16 08:22:06;;;;;;;6.63;1.50;;;0.80;99.90;;;;;;5008606;28;20041;-81
2024/01/16 08:24:32;;;;;;;3.63;2.05;;;0.70;99.90;;;;;;5019620;28;20656;-81
2024/01/16 08:26:57;;;;;;;4.60;1.08;;;0.80;99.90;;;;;;5024565;28;20037;-81
2024/01/16 08:29:24;;;;;;;3.58;1.08;;;0.80;99.90;;;;;;5011708;28;20383;-81
2024/01/16 08:31:51;;;;;;;5.55;1.48;;;0.80;99.90;;;;;;5009337;28;20041;-80
2024/01/16 08:34:16;;;;;;;1.40;1.10;;;0.80;99.90;;;;;;5007618;28;20049;-81
2024/01/16 08:36:42;;;;;;;5.22;1.45;;;1.00;99.90;;;;;;5032972;28;20060;-81
2024/01/16 08:39:08;;;;;;;4.13;1.45;;;0.80;99.90;;;;;;5012581;28;20947;-81
2024/01/16 08:41:33;;;;;;;6.70;2.00;;;0.80;99.90;;;;;;5012141;28;20505;-81
2024/01/16 08:43:59;;;;;;;6.10;1.73;;;0.90;99.90;;;;;;5021351;28;20033;-81
2024/01/16 08:46:25;;;;;;;3.88;1.40;;;0.90;99.90;;;;;;5017780;28;21259;-80
2024/01/16 08:48:50;;;;;;;6.88;2.13;;;0.90;99.90;;;;;;5006141;28;20057;-80
2024/01/16 08:51:16;;;;;;;4.82;1.90;;;1.10;99.90;;;;;;5000127;28;20041;-81
2024/01/16 08:53:42;;;;;;;4.10;1.33;;;1.00;99.90;;;;;;5010493;28;20628;-80
2024/01/16 08:56:08;;;;;;;6.32;2.10;;;1.10;99.90;;;;;;5005678;28;20049;-81
2024/01/16 08:58:38;;;;;;;8.05;2.40;;;1.20;99.90;;;;;;4997211;28;20064;-80
2024/01/16 09:01:06;;;;;;;5.82;1.88;;;1.00;99.90;;;;;;5030074;28;20045;-81
2024/01/16 09:03:35;;;;;;;5.60;2.22;;;1.00;99.90;;;;;;5025789;28;20032;-81
2024/01/16 09:06:01;;;;;;;6.72;2.22;;;1.00;99.90;;;;;;5027800;28;20037;-80
2024/01/16 09:08:27;;;;;;;9.05;2.13;;;1.00;99.90;;;;;;5030157;28;20045;-81
2024/01/16 09:10:54;;;;;;;7.35;2.35;;;1.00;99.90;;;;;;5011909;28;20040;-81
2024/01/16 09:13:20;;;;;;;7.15;2.38;;;1.00;99.90;;;;;;5033348;28;20049;-81
2024/01/16 09:15:48;;;;;;;7.53;2.20;;;1.00;99.90;;;;;;5008457;28;20106;-81
2024/01/16 09:18:14;;;;;;;8.32;2.38;;;1.10;99.90;;;;;;5026345;28;20059;-81
2024/01/16 09:20:39;;;;;;;8.65;2.85;;;1.10;99.90;;;;;;5023374;28;20041;-80
2024/01/16 09:23:05;;;;;;;7.95;2.20;;;1.10;99.90;;;;;;5032640;28;20041;-80
2024/01/16 09:25:30;;;;;;;9.02;2.20;;;1.10;99.90;;;;;;5037529;28;20044;-81
2024/01/16 09:27:56;;;;;;;5.13;2.08;;;1.20;99.90;;;;;;5015162;28;20041;-81
2024/01/16 09:30:22;;;;;;;9.10;2.17;;;1.20;99.90;;;;;;5040301;28;20036;-80
2024/01/16 09:32:49;;;;;;;8.70;2.40;;;1.40;99.90;;;;;;5038075;28;20127;-81
2024/01/16 09:35:15;;;;;;;4.75;1.45;;;1.40;99.90;;;;;;5050199;28;20048;-81
2024/01/16 09:37:40;;;;;;;8.40;2.15;;;1.40;99.90;;;;;;5022703;28;20040;-81
2024/01/16 09:40:07;;;;;;;8.82;2.58;;;1.50;99.90;;;;;;5018173;28;20041;-81
2024/01/16 09:42:32;;;;;;;6.05;2.30;;;1.50;99.90;;;;;;5032402;28;20046;-81
2024/01/16 09:45:00;;;;;;;6.53;2.42;;;1.50;99.90;;;;;;5020842;28;20048;-83
2024/01/16 09:47:26;;;;;;;5.43;1.60;;;1.50;99.90;;;;;;5040457;28;20041;-80
2024/01/16 09:49:54;;;;;;;4.32;2.10;;;1.50;99.90;;;;;;5036836;28;20048;-80
2024/01/16 09:52:19;;;;;;;3.90;1.60;;;1.60;99.90;;;;;;5051871;28;20076;-80
2024/01/16 09:54:45;;;;;;;3.92;1.25;;;1.60;99.90;;;;;;5043456;28;20060;-80
2024/01/16 09:57:13;;;;;;;6.55;1.60;;;1.60;99.90;;;;;;5048322;28;20132;-80
2024/01/16 09:59:40;;;;;;;6.28;1.38;;;1.70;99.90;;;;;;5041847;28;20057;-80
2024/01/16 10:02:10;;;;;;;5.75;1.65;;;1.60;99.90;;;;;;5046927;28;20486;-80
2024/01/16 10:04:36;;;;;;;3.15;1.48;;;1.80;99.90;;;;;;5033261;28;20037;-80
2024/01/16 10:07:03;;;;;;;6.50;1.90;;;1.80;99.90;;;;;;5050665;28;20044;-81
2024/01/16 10:09:29;;;;;;;8.43;2.08;;;1.70;99.90;;;;;;5052797;28;20037;-80
2024/01/16 10:11:55;;;;;;;6.10;2.10;;;1.80;99.90;;;;;;5019198;28;20087;-81
2024/01/16 10:14:21;;;;;;;5.30;1.95;;;1.70;99.90;;;;;;5052169;28;20076;-81
2024/01/16 10:17:05;;;;;;;3.78;1.48;;;1.80;99.90;;;;;;5030466;28;20083;-81
2024/01/16 10:19:31;;;;;;;1.58;1.15;;;1.90;99.90;;;;;;5032900;28;20504;-81
2024/01/16 10:22:06;;;;;;;7.10;2.75;;;2.00;99.90;;;;;;5052662;28;20563;-81
2024/01/16 10:24:35;;;;;;;8.00;3.08;;;1.90;99.90;;;;;;5046652;28;20040;-80
2024/01/16 10:27:04;;;;;;;7.95;3.03;;;1.80;99.90;;;;;;5065376;28;20033;-81
2024/01/16 10:29:32;;;;;;;8.30;2.92;;;1.90;99.90;;;;;;5051451;28;20543;-81
2024/01/16 10:31:59;;;;;;;5.35;2.55;;;1.90;99.90;;;;;;5035498;28;20516;-81
2024/01/16 10:34:24;;;;;;;6.97;3.42;;;1.90;99.90;;;;;;5027247;28;20575;-81
2024/01/16 10:36:52;;;;;;;7.65;2.83;;;1.90;99.90;;;;;;5030482;28;20087;-81
2024/01/16 10:39:18;;;;;;;8.27;2.65;;;2.00;99.90;;;;;;5032378;28;20041;-81
2024/01/16 10:42:00;;;;;;;6.97;2.97;;;2.10;99.90;;;;;;5030730;28;20045;-80
2024/01/16 10:44:27;;;;;;;7.20;3.30;;;2.10;99.90;;;;;;5023994;28;20033;-81
2024/01/16 10:47:10;;;;;;;8.07;3.53;;;2.10;99.90;;;;;;5049981;28;20041;-81
2024/01/16 10:49:37;;;;;;;7.13;3.08;;;2.10;99.90;;;;;;5042438;28;20051;-81
2024/01/16 10:52:09;;;;;;;9.98;1.63;;;2.10;99.90;;;;;;5051095;28;20049;-81
2024/01/16 10:54:37;;;;;;;4.47;2.17;;;2.20;99.90;;;;;;5039243;28;20096;-81
2024/01/16 10:57:04;;;;;;;11.32;4.00;;;2.10;99.90;;;;;;5051030;28;20044;-81
2024/01/16 10:59:42;;;;;;;11.30;4.70;;;2.10;99.90;;;;;;5012006;28;20103;-81
2024/01/16 11:02:12;;;;;;;9.93;3.40;;;2.00;99.90;;;;;;5025836;28;20491;-81
2024/01/16 11:04:39;;;;;;;6.22;2.30;;;2.00;99.90;;;;;;5008292;28;20394;-81
2024/01/16 11:07:06;;;;;;;7.35;3.33;;;2.10;99.90;;;;;;5032733;28;20063;-81
2024/01/16 11:09:32;;;;;;;9.45;3.33;;;2.00;99.90;;;;;;5009930;28;20033;-81
2024/01/16 11:11:59;;;;;;;6.03;2.50;;;1.90;99.90;;;;;;5012753;28;20042;-82
2024/01/16 11:14:26;;;;;;;4.97;1.90;;;2.00;99.90;;;;;;5027211;28;20403;-81
2024/01/16 11:16:53;;;;;;;8.15;2.75;;;2.10;99.90;;;;;;5023326;28;20484;-81
2024/01/16 11:19:20;;;;;;;7.78;2.38;;;1.90;99.90;;;;;;5026712;28;20056;-81
2024/01/16 11:21:46;;;;;;;3.83;1.60;;;2.00;99.90;;;;;;5011140;28;20513;-81
2024/01/16 11:24:12;;;;;;;3.83;1.60;;;2.00;99.90;;;;;;5027962;28;20048;-81
2024/01/16 11:26:41;;;;;;;1.75;1.00;;;2.00;99.90;;;;;;5028608;28;20544;-81
2024/01/16 11:29:26;;;;;;;4.03;1.20;;;2.10;99.90;;;;;;5025720;28;20044;-81
2024/01/16 11:31:51;;;;;;;2.30;0.98;;;2.00;99.90;;;;;;5009284;28;20065;-81
2024/01/16 11:34:57;;;;;;;3.28;1.05;;;2.00;99.90;;;;;;5028571;28;20046;-81
2024/01/16 11:37:32;;;;;;;6.43;1.58;;;1.80;99.90;;;;;;5037011;28;20421;-81
2024/01/16 11:40:17;;;;;;;2.10;1.00;;;1.70;99.90;;;;;;5000037;28;20107;-81
2024/01/16 11:42:43;;;;;;;2.45;1.08;;;1.80;99.90;;;;;;5042357;28;20045;-81
2024/01/16 11:45:31;;;;;;;1.83;0.90;;;1.70;99.90;;;;;;5027654;28;20076;-81
2024/01/16 11:48:13;;;;;;;4.82;1.00;;;1.70;99.90;;;;;;5028982;28;20038;-81
2024/01/16 11:50:40;;;;;;;1.88;0.73;;;1.80;99.90;;;;;;5014877;28;20047;-80
2024/01/16 11:53:05;;;;;;;5.13;2.08;;;1.70;99.90;;;;;;5013553;28;20033;-81
2024/01/16 11:55:41;;;;;;;3.30;1.20;;;1.70;99.90;;;;;;5013885;28;20123;-80
2024/01/16 11:58:25;;;;;;;6.90;1.30;;;1.70;99.90;;;;;;5023824;28;20033;-80
2024/01/16 12:00:52;;;;;;;4.78;1.00;;;1.70;99.90;;;;;;5049472;28;20128;-80
2024/01/16 12:03:21;;;;;;;6.03;1.33;;;1.70;99.90;;;;;;5052479;28;20131;-80
2024/01/16 12:05:56;;;;;;;6.13;1.52;;;1.70;99.90;;;;;;5054500;28;20037;-80
2024/01/16 12:08:22;;;;;;;1.75;0.90;;;1.70;99.90;;;;;;5035802;28;20561;-81
2024/01/16 12:10:48;;;;;;;5.07;1.17;;;1.70;99.90;;;;;;5048820;28;20455;-80
2024/01/16 12:13:14;;;;;;;5.95;1.30;;;1.70;99.90;;;;;;5053408;28;20040;-81
2024/01/16 12:15:40;;;;;;;3.88;1.08;;;1.70;99.90;;;;;;5037899;28;20048;-81
2024/01/16 12:18:06;;;;;;;5.03;1.25;;;1.80;99.90;;;;;;5053061;28;20401;-81
2024/01/16 12:20:34;;;;;;;4.68;1.10;;;1.90;99.90;;;;;;5046949;28;20048;-81
2024/01/16 12:23:01;;;;;;;3.53;0.95;;;1.90;99.90;;;;;;5037173;28;20040;-81
2024/01/16 12:25:29;;;;;;;3.95;1.17;;;1.90;99.90;;;;;;5034396;28;20039;-80
2024/01/16 12:28:19;;;;;;;5.30;1.35;;;2.00;99.90;;;;;;5044254;28;20032;-80
2024/01/16 12:30:50;;;;;;;3.22;1.10;;;1.90;99.90;;;;;;5050258;28;20067;-81
2024/01/16 12:33:16;;;;;;;3.15;0.82;;;2.10;99.90;;;;;;5057391;28;20048;-80
2024/01/16 12:35:45;;;;;;;3.97;1.27;;;2.10;99.90;;;;;;5056639;28;20519;-81
2024/01/16 12:38:12;;;;;;;4.22;1.25;;;2.10;99.90;;;;;;5033115;28;20041;-81
2024/01/16 12:40:52;;;;;;;3.90;1.02;;;2.20;99.90;;;;;;5049246;28;20119;-81
2024/01/16 12:43:18;;;;;;;4.63;1.63;;;2.30;99.90;;;;;;5039421;28;20055;-81
2024/01/16 12:45:44;;;;;;;6.97;1.92;;;2.30;99.90;;;;;;5038837;28;20032;-81
2024/01/16 12:48:11;;;;;;;12.52;1.33;;;2.40;99.90;;;;;;5038603;28;20036;-80
2024/01/16 12:50:37;;;;;;;5.35;1.70;;;2.30;99.90;;;;;;5052477;28;20040;-81
2024/01/16 12:53:10;;;;;;;10.57;2.15;;;2.40;99.90;;;;;;5055955;28;20048;-81
2024/01/16 12:55:38;;;;;;;5.68;1.65;;;2.30;99.90;;;;;;5056555;28;20048;-81